Hayward, WI

11:13 PM CST on December 27, 2014 (GMT -0600)
Sawyer County | Change Station
CLOSE
Current Station
Airport
Location: Hayward,
Elevation: 1214 ft
Nearby Weather Stations

Elev 1214 ft 46.02 °N, 91.45 °W | Updated 20 minutes ago

Overcast
Overcast
17 °F
Feels Like 9 °F
N
6
Wind Variable Wind from SW

Today
High -- | Low -- °F
--% Chance of Precip.
Yesterday
High -- | Low -- °F
Precip. -- in
7:46 AM 4:26 PM
Waxing Crescent, 44% visible
Pressure 30.10 in
Visibility 10.0 miles
Clouds Few 4700 ft
Windchill 9 °F
Dew Point 10 °F
Humidity 74%
Rainfall 0.10 in
Snow Depth Not available.
UV 0 out of 12
Pollen .10 out of 12
Air Quality Not available.
Flu Activity Not available.
METAR KHYR 280453Z AUTO 23005KT 10SM FEW047 M08/M12 A3003 RMK AO2 SLP191 T10831122

More Conditions Fewer Conditions

Pressure 30.10 in
Visibility 10.0 miles
Clouds Few 4700 ft
Windchill 9 °F
Dew Point 10 °F
Humidity 74%
Rainfall 0.10 in
Snow Depth Not available.
UV 0 out of 12
Pollen .10 out of 12
Air Quality Not available.
Flu Activity Not available.
METAR KHYR 280453Z AUTO 23005KT 10SM FEW047 M08/M12 A3003 RMK AO2 SLP191 T10831122

More Conditions Fewer Conditions

10-Day Weather Forecast

Almanac

Astronomy

Dec. 27, 2014 Rise Set
Actual Time
Civil Twilight
Nautical Twilight
Astronomical Twilight
Moon
Length of Visible Light
Length of Day
Tomorrow will be .
, % of the Moon is Illuminated

Today's Extremes

State Highs State Lows

Community

WunderPhotos

Upload Photos

1,781,205 photos uploaded!

WunderBlogs® & News

Nearby

Air Quality

  Air Quality AQ Index Pollutant
Not available.

Snow Depth

Station Depth Elevation

Earthquake Activity

City Distance Mag. Time & Date
Minimum magnitude displayed is 2.5.

Coastal Water Temperatures

Place Temperature

Nearby Weather Stations